sensor_id;sensor_type;location;lat;lon;timestamp;pressure;altitude;pressure_sealevel;temperature;humidity
59329;BME280;45100;46.926;7.452;2023-04-27T00:03:31;95265.16;;;10.81;72.89
59329;BME280;45100;46.926;7.452;2023-04-27T00:06:01;95265.68;;;10.82;72.85
59329;BME280;45100;46.926;7.452;2023-04-27T00:08:32;95267.94;;;10.82;72.92
59329;BME280;45100;46.926;7.452;2023-04-27T00:11:03;95268.81;;;10.82;73.27
59329;BME280;45100;46.926;7.452;2023-04-27T00:13:33;95271.46;;;10.83;73.64
59329;BME280;45100;46.926;7.452;2023-04-27T00:16:04;95268.70;;;10.81;74.05
59329;BME280;45100;46.926;7.452;2023-04-27T00:18:34;95266.84;;;10.79;73.79
59329;BME280;45100;46.926;7.452;2023-04-27T00:21:07;95262.42;;;10.77;73.43
59329;BME280;45100;46.926;7.452;2023-04-27T00:23:36;95255.73;;;10.77;73.63
59329;BME280;45100;46.926;7.452;2023-04-27T00:26:07;95261.30;;;10.77;73.33
59329;BME280;45100;46.926;7.452;2023-04-27T00:28:38;95256.84;;;10.76;73.22
59329;BME280;45100;46.926;7.452;2023-04-27T00:31:08;95254.20;;;10.74;73.53
59329;BME280;45100;46.926;7.452;2023-04-27T00:33:38;95254.27;;;10.76;73.80
59329;BME280;45100;46.926;7.452;2023-04-27T00:36:09;95254.97;;;10.76;73.93
59329;BME280;45100;46.926;7.452;2023-04-27T00:38:40;95261.41;;;10.75;73.42
59329;BME280;45100;46.926;7.452;2023-04-27T00:41:11;95260.53;;;10.73;74.44
59329;BME280;45100;46.926;7.452;2023-04-27T00:43:42;95262.56;;;10.69;75.28
59329;BME280;45100;46.926;7.452;2023-04-27T00:46:13;95262.08;;;10.66;75.41
59329;BME280;45100;46.926;7.452;2023-04-27T00:48:43;95255.09;;;10.66;75.46
59329;BME280;45100;46.926;7.452;2023-04-27T00:51:13;95255.17;;;10.68;75.56
59329;BME280;45100;46.926;7.452;2023-04-27T00:53:44;95253.87;;;10.69;75.86
59329;BME280;45100;46.926;7.452;2023-04-27T00:56:15;95259.61;;;10.70;75.31
59329;BME280;45100;46.926;7.452;2023-04-27T00:58:45;95261.17;;;10.70;75.13
59329;BME280;45100;46.926;7.452;2023-04-27T01:01:17;95258.93;;;10.71;75.43
59329;BME280;45100;46.926;7.452;2023-04-27T01:03:46;95258.66;;;10.72;75.14
59329;BME280;45100;46.926;7.452;2023-04-27T01:06:17;95262.13;;;10.70;75.48
59329;BME280;45100;46.926;7.452;2023-04-27T01:08:48;95262.62;;;10.70;75.54
59329;BME280;45100;46.926;7.452;2023-04-27T01:11:18;95266.76;;;10.70;75.46
59329;BME280;45100;46.926;7.452;2023-04-27T01:13:50;95269.92;;;10.70;75.46
59329;BME280;45100;46.926;7.452;2023-04-27T01:16:20;95265.77;;;10.69;75.39
59329;BME280;45100;46.926;7.452;2023-04-27T01:18:50;95274.95;;;10.68;75.42
59329;BME280;45100;46.926;7.452;2023-04-27T01:21:22;95277.72;;;10.65;75.85
59329;BME280;45100;46.926;7.452;2023-04-27T01:23:52;95277.12;;;10.63;76.10
59329;BME280;45100;46.926;7.452;2023-04-27T01:26:22;95279.50;;;10.61;76.57
59329;BME280;45100;46.926;7.452;2023-04-27T01:28:53;95279.58;;;10.60;76.51
59329;BME280;45100;46.926;7.452;2023-04-27T01:31:24;95278.26;;;10.59;76.35
59329;BME280;45100;46.926;7.452;2023-04-27T01:33:54;95278.12;;;10.60;76.51
59329;BME280;45100;46.926;7.452;2023-04-27T01:36:24;95279.35;;;10.60;76.65
59329;BME280;45100;46.926;7.452;2023-04-27T01:38:55;95281.35;;;10.60;76.53
59329;BME280;45100;46.926;7.452;2023-04-27T01:41:26;95280.97;;;10.60;76.66
59329;BME280;45100;46.926;7.452;2023-04-27T01:43:56;95280.16;;;10.60;76.36
59329;BME280;45100;46.926;7.452;2023-04-27T01:46:27;95283.17;;;10.59;76.49
59329;BME280;45100;46.926;7.452;2023-04-27T01:48:58;95286.19;;;10.57;76.56
59329;BME280;45100;46.926;7.452;2023-04-27T01:51:28;95287.72;;;10.56;76.30
59329;BME280;45100;46.926;7.452;2023-04-27T01:53:59;95282.38;;;10.54;76.49
59329;BME280;45100;46.926;7.452;2023-04-27T01:56:29;95281.06;;;10.52;76.66
59329;BME280;45100;46.926;7.452;2023-04-27T01:59:00;95277.80;;;10.52;76.60
59329;BME280;45100;46.926;7.452;2023-04-27T02:01:31;95281.84;;;10.52;76.57
59329;BME280;45100;46.926;7.452;2023-04-27T02:04:02;95279.81;;;10.51;76.52
59329;BME280;45100;46.926;7.452;2023-04-27T02:06:33;95279.62;;;10.49;76.54
59329;BME280;45100;46.926;7.452;2023-04-27T02:11:38;95274.22;;;10.47;76.75
59329;BME280;45100;46.926;7.452;2023-04-27T02:14:07;95276.59;;;10.45;76.80
59329;BME280;45100;46.926;7.452;2023-04-27T02:16:38;95278.23;;;10.42;76.79
59329;BME280;45100;46.926;7.452;2023-04-27T02:19:09;95277.73;;;10.39;77.04
59329;BME280;45100;46.926;7.452;2023-04-27T02:21:40;95271.94;;;10.36;76.57
59329;BME280;45100;46.926;7.452;2023-04-27T02:24:10;95272.45;;;10.33;76.43
59329;BME280;45100;46.926;7.452;2023-04-27T02:26:41;95266.11;;;10.30;75.98
59329;BME280;45100;46.926;7.452;2023-04-27T02:29:12;95271.42;;;10.27;76.17
59329;BME280;45100;46.926;7.452;2023-04-27T02:31:43;95270.35;;;10.25;75.99
59329;BME280;45100;46.926;7.452;2023-04-27T02:34:13;95271.38;;;10.21;76.00
59329;BME280;45100;46.926;7.452;2023-04-27T02:36:44;95266.38;;;10.15;76.22
59329;BME280;45100;46.926;7.452;2023-04-27T02:39:16;95270.87;;;10.10;76.49
59329;BME280;45100;46.926;7.452;2023-04-27T02:41:45;95269.20;;;10.03;76.50
59329;BME280;45100;46.926;7.452;2023-04-27T02:44:16;95270.05;;;9.97;76.99
59329;BME280;45100;46.926;7.452;2023-04-27T02:46:47;95275.12;;;9.90;77.67
59329;BME280;45100;46.926;7.452;2023-04-27T02:49:18;95277.58;;;9.84;78.07
59329;BME280;45100;46.926;7.452;2023-04-27T02:51:49;95276.65;;;9.76;78.49
59329;BME280;45100;46.926;7.452;2023-04-27T02:54:19;95278.59;;;9.69;78.63
59329;BME280;45100;46.926;7.452;2023-04-27T02:56:51;95277.93;;;9.65;78.83
59329;BME280;45100;46.926;7.452;2023-04-27T02:59:21;95283.56;;;9.61;79.20
59329;BME280;45100;46.926;7.452;2023-04-27T03:01:52;95283.91;;;9.57;79.59
59329;BME280;45100;46.926;7.452;2023-04-27T03:04:23;95281.83;;;9.52;79.85
59329;BME280;45100;46.926;7.452;2023-04-27T03:06:54;95286.45;;;9.47;80.17
59329;BME280;45100;46.926;7.452;2023-04-27T03:09:24;95287.42;;;9.40;80.70
59329;BME280;45100;46.926;7.452;2023-04-27T03:11:55;95287.44;;;9.34;81.15
59329;BME280;45100;46.926;7.452;2023-04-27T03:14:26;95286.01;;;9.28;81.12
59329;BME280;45100;46.926;7.452;2023-04-27T03:16:57;95291.02;;;9.22;81.46
59329;BME280;45100;46.926;7.452;2023-04-27T03:19:28;95294.20;;;9.16;81.70
59329;BME280;45100;46.926;7.452;2023-04-27T03:21:59;95295.05;;;9.10;82.03
59329;BME280;45100;46.926;7.452;2023-04-27T03:24:30;95293.16;;;9.05;82.47
59329;BME280;45100;46.926;7.452;2023-04-27T03:27:01;95302.64;;;9.01;82.39
59329;BME280;45100;46.926;7.452;2023-04-27T03:29:30;95303.62;;;8.96;82.54
59329;BME280;45100;46.926;7.452;2023-04-27T03:32:01;95296.76;;;8.93;82.89
59329;BME280;45100;46.926;7.452;2023-04-27T03:34:31;95298.17;;;8.92;82.82
59329;BME280;45100;46.926;7.452;2023-04-27T03:37:02;95300.17;;;8.90;82.55
59329;BME280;45100;46.926;7.452;2023-04-27T03:39:32;95303.02;;;8.87;82.60
59329;BME280;45100;46.926;7.452;2023-04-27T03:42:03;95304.95;;;8.83;82.74
59329;BME280;45100;46.926;7.452;2023-04-27T03:44:35;95311.80;;;8.78;82.43
59329;BME280;45100;46.926;7.452;2023-04-27T03:47:09;95314.28;;;8.71;82.21
59329;BME280;45100;46.926;7.452;2023-04-27T03:49:34;95313.73;;;8.65;82.47
59329;BME280;45100;46.926;7.452;2023-04-27T03:52:04;95311.16;;;8.60;82.52
59329;BME280;45100;46.926;7.452;2023-04-27T03:54:36;95313.70;;;8.56;82.60
59329;BME280;45100;46.926;7.452;2023-04-27T03:57:06;95313.02;;;8.52;82.82
59329;BME280;45100;46.926;7.452;2023-04-27T03:59:35;95309.48;;;8.49;83.17
59329;BME280;45100;46.926;7.452;2023-04-27T04:02:09;95312.80;;;8.46;83.55
59329;BME280;45100;46.926;7.452;2023-04-27T04:04:36;95317.91;;;8.43;83.82
59329;BME280;45100;46.926;7.452;2023-04-27T04:07:07;95314.88;;;8.41;84.04
59329;BME280;45100;46.926;7.452;2023-04-27T04:09:38;95316.01;;;8.40;84.29
59329;BME280;45100;46.926;7.452;2023-04-27T04:12:09;95315.59;;;8.39;84.39
59329;BME280;45100;46.926;7.452;2023-04-27T04:14:39;95315.23;;;8.37;84.44
59329;BME280;45100;46.926;7.452;2023-04-27T04:17:10;95321.48;;;8.36;84.55
59329;BME280;45100;46.926;7.452;2023-04-27T04:19:41;95318.55;;;8.35;84.67
59329;BME280;45100;46.926;7.452;2023-04-27T04:22:12;95319.45;;;8.35;84.92
59329;BME280;45100;46.926;7.452;2023-04-27T04:24:43;95317.97;;;8.33;85.01
59329;BME280;45100;46.926;7.452;2023-04-27T04:27:13;95319.45;;;8.32;85.10
59329;BME280;45100;46.926;7.452;2023-04-27T04:29:44;95315.84;;;8.30;85.19
59329;BME280;45100;46.926;7.452;2023-04-27T04:32:19;95320.19;;;8.28;85.31
59329;BME280;45100;46.926;7.452;2023-04-27T04:34:47;95318.96;;;8.27;85.27
59329;BME280;45100;46.926;7.452;2023-04-27T04:37:18;95317.70;;;8.25;85.35
59329;BME280;45100;46.926;7.452;2023-04-27T04:39:47;95316.39;;;8.29;85.84
59329;BME280;45100;46.926;7.452;2023-04-27T04:42:17;95319.00;;;8.38;86.17
59329;BME280;45100;46.926;7.452;2023-04-27T04:44:49;95321.75;;;8.52;85.53
59329;BME280;45100;46.926;7.452;2023-04-27T04:47:18;95322.69;;;8.77;84.72
59329;BME280;45100;46.926;7.452;2023-04-27T04:49:49;95322.86;;;9.17;82.38
59329;BME280;45100;46.926;7.452;2023-04-27T04:52:20;95316.64;;;9.66;80.16
59329;BME280;45100;46.926;7.452;2023-04-27T04:54:51;95317.84;;;10.18;77.36
59329;BME280;45100;46.926;7.452;2023-04-27T04:57:21;95318.24;;;10.61;73.84
59329;BME280;45100;46.926;7.452;2023-04-27T04:59:51;95320.03;;;10.88;71.89
59329;BME280;45100;46.926;7.452;2023-04-27T05:02:21;95320.38;;;10.96;71.23
59329;BME280;45100;46.926;7.452;2023-04-27T05:04:52;95321.02;;;10.89;71.13
59329;BME280;45100;46.926;7.452;2023-04-27T05:07:23;95324.42;;;10.77;71.95
59329;BME280;45100;46.926;7.452;2023-04-27T05:09:54;95324.56;;;10.63;72.59
59329;BME280;45100;46.926;7.452;2023-04-27T05:12:25;95329.70;;;10.49;73.10
59329;BME280;45100;46.926;7.452;2023-04-27T05:14:55;95334.45;;;10.35;73.69
59329;BME280;45100;46.926;7.452;2023-04-27T05:17:26;95339.84;;;10.21;74.24
59329;BME280;45100;46.926;7.452;2023-04-27T05:19:58;95342.55;;;10.10;74.66
59329;BME280;45100;46.926;7.452;2023-04-27T05:22:27;95342.30;;;10.04;74.99
59329;BME280;45100;46.926;7.452;2023-04-27T05:24:58;95343.91;;;9.98;75.31
59329;BME280;45100;46.926;7.452;2023-04-27T05:27:28;95343.28;;;9.92;74.93
59329;BME280;45100;46.926;7.452;2023-04-27T05:29:59;95345.48;;;9.83;75.41
59329;BME280;45100;46.926;7.452;2023-04-27T05:32:30;95349.12;;;9.77;75.90
59329;BME280;45100;46.926;7.452;2023-04-27T05:35:00;95343.42;;;9.74;76.37
59329;BME280;45100;46.926;7.452;2023-04-27T05:37:31;95348.09;;;9.70;76.74
59329;BME280;45100;46.926;7.452;2023-04-27T05:40:01;95343.06;;;9.69;76.85
59329;BME280;45100;46.926;7.452;2023-04-27T05:42:32;95351.41;;;9.70;76.90
59329;BME280;45100;46.926;7.452;2023-04-27T05:45:04;95348.97;;;9.67;77.05
59329;BME280;45100;46.926;7.452;2023-04-27T05:50:08;95357.48;;;9.69;77.76
59329;BME280;45100;46.926;7.452;2023-04-27T05:52:38;95357.77;;;9.71;77.91
59329;BME280;45100;46.926;7.452;2023-04-27T05:55:08;95360.85;;;9.74;77.96
59329;BME280;45100;46.926;7.452;2023-04-27T05:57:39;95362.32;;;9.78;77.54
59329;BME280;45100;46.926;7.452;2023-04-27T06:00:11;95365.70;;;9.81;76.90
59329;BME280;45100;46.926;7.452;2023-04-27T06:02:39;95368.84;;;9.84;76.39
59329;BME280;45100;46.926;7.452;2023-04-27T06:05:10;95369.25;;;9.88;76.02
59329;BME280;45100;46.926;7.452;2023-04-27T06:07:43;95368.44;;;9.91;75.26
59329;BME280;45100;46.926;7.452;2023-04-27T06:10:11;95369.42;;;9.95;75.05
59329;BME280;45100;46.926;7.452;2023-04-27T06:12:42;95366.10;;;10.00;74.74
59329;BME280;45100;46.926;7.452;2023-04-27T06:15:11;95373.59;;;10.01;73.85
59329;BME280;45100;46.926;7.452;2023-04-27T06:17:45;95372.34;;;9.99;74.50
59329;BME280;45100;46.926;7.452;2023-04-27T06:22:46;95376.39;;;10.01;74.65
59329;BME280;45100;46.926;7.452;2023-04-27T06:25:16;95376.39;;;10.03;74.33
59329;BME280;45100;46.926;7.452;2023-04-27T06:27:47;95375.69;;;10.07;73.92
59329;BME280;45100;46.926;7.452;2023-04-27T06:30:18;95376.94;;;10.10;73.92
59329;BME280;45100;46.926;7.452;2023-04-27T06:32:49;95374.59;;;10.14;73.73
59329;BME280;45100;46.926;7.452;2023-04-27T06:35:19;95378.55;;;10.18;73.69
59329;BME280;45100;46.926;7.452;2023-04-27T06:37:51;95381.91;;;10.22;73.56
59329;BME280;45100;46.926;7.452;2023-04-27T06:40:20;95382.65;;;10.24;72.74
59329;BME280;45100;46.926;7.452;2023-04-27T06:42:52;95383.79;;;10.27;72.80
59329;BME280;45100;46.926;7.452;2023-04-27T06:45:21;95380.36;;;10.29;72.66
59329;BME280;45100;46.926;7.452;2023-04-27T06:47:53;95382.02;;;10.32;72.76
59329;BME280;45100;46.926;7.452;2023-04-27T06:50:22;95383.42;;;10.36;72.38
59329;BME280;45100;46.926;7.452;2023-04-27T06:52:53;95385.27;;;10.40;72.15
59329;BME280;45100;46.926;7.452;2023-04-27T06:55:24;95385.43;;;10.46;71.67
59329;BME280;45100;46.926;7.452;2023-04-27T06:57:55;95383.14;;;10.50;71.71
59329;BME280;45100;46.926;7.452;2023-04-27T07:00:26;95379.75;;;10.54;71.55
59329;BME280;45100;46.926;7.452;2023-04-27T07:02:56;95384.93;;;10.58;71.83
59329;BME280;45100;46.926;7.452;2023-04-27T07:05:26;95385.38;;;10.63;72.04
59329;BME280;45100;46.926;7.452;2023-04-27T07:07:56;95381.88;;;10.69;72.34
59329;BME280;45100;46.926;7.452;2023-04-27T07:10:27;95377.16;;;10.75;71.90
59329;BME280;45100;46.926;7.452;2023-04-27T07:12:58;95377.91;;;10.82;71.72
59329;BME280;45100;46.926;7.452;2023-04-27T07:15:32;95377.50;;;10.89;71.39
59329;BME280;45100;46.926;7.452;2023-04-27T07:17:59;95375.21;;;10.96;70.72
59329;BME280;45100;46.926;7.452;2023-04-27T07:20:31;95372.89;;;11.04;70.64
59329;BME280;45100;46.926;7.452;2023-04-27T07:23:01;95371.03;;;11.09;70.72
59329;BME280;45100;46.926;7.452;2023-04-27T07:25:31;95370.68;;;11.16;71.00
59329;BME280;45100;46.926;7.452;2023-04-27T07:28:01;95369.55;;;11.26;70.72
59329;BME280;45100;46.926;7.452;2023-04-27T07:30:36;95369.80;;;11.35;70.80
59329;BME280;45100;46.926;7.452;2023-04-27T07:33:02;95368.78;;;11.45;71.02
59329;BME280;45100;46.926;7.452;2023-04-27T07:35:33;95368.17;;;11.58;70.59
59329;BME280;45100;46.926;7.452;2023-04-27T07:38:04;95365.19;;;11.70;70.27
59329;BME280;45100;46.926;7.452;2023-04-27T07:40:34;95364.52;;;11.84;69.96
59329;BME280;45100;46.926;7.452;2023-04-27T07:48:13;95353.41;;;12.29;68.38
59329;BME280;45100;46.926;7.452;2023-04-27T07:50:43;95355.99;;;12.44;67.26
59329;BME280;45100;46.926;7.452;2023-04-27T07:53:13;95348.84;;;12.56;67.63
59329;BME280;45100;46.926;7.452;2023-04-27T07:55:44;95345.66;;;12.66;66.09
59329;BME280;45100;46.926;7.452;2023-04-27T07:58:15;95340.16;;;12.75;66.08
59329;BME280;45100;46.926;7.452;2023-04-27T08:00:45;95342.58;;;12.88;64.35
59329;BME280;45100;46.926;7.452;2023-04-27T08:03:16;95342.23;;;12.98;62.36
59329;BME280;45100;46.926;7.452;2023-04-27T08:05:47;95341.75;;;13.07;62.63
59329;BME280;45100;46.926;7.452;2023-04-27T08:08:17;95338.16;;;13.18;62.31
59329;BME280;45100;46.926;7.452;2023-04-27T08:10:48;95337.92;;;13.31;61.56
59329;BME280;45100;46.926;7.452;2023-04-27T08:13:19;95337.24;;;13.42;60.26
59329;BME280;45100;46.926;7.452;2023-04-27T08:15:51;95337.09;;;13.48;60.96
59329;BME280;45100;46.926;7.452;2023-04-27T08:18:21;95338.58;;;13.60;61.45
59329;BME280;45100;46.926;7.452;2023-04-27T08:20:51;95340.95;;;13.76;61.04
59329;BME280;45100;46.926;7.452;2023-04-27T08:23:25;95337.84;;;13.89;59.28
59329;BME280;45100;46.926;7.452;2023-04-27T08:25:53;95335.16;;;13.95;59.72
59329;BME280;45100;46.926;7.452;2023-04-27T08:28:23;95336.95;;;14.06;59.66
59329;BME280;45100;46.926;7.452;2023-04-27T08:30:54;95337.41;;;14.19;59.61
59329;BME280;45100;46.926;7.452;2023-04-27T08:33:24;95336.36;;;14.33;58.92
59329;BME280;45100;46.926;7.452;2023-04-27T08:38:29;95333.17;;;14.52;57.38
59329;BME280;45100;46.926;7.452;2023-04-27T08:40:58;95338.16;;;14.57;56.83
59329;BME280;45100;46.926;7.452;2023-04-27T08:46:08;95329.36;;;14.73;55.85
59329;BME280;45100;46.926;7.452;2023-04-27T08:48:38;95327.22;;;14.85;55.46
59329;BME280;45100;46.926;7.452;2023-04-27T08:51:09;95329.41;;;14.97;54.43
59329;BME280;45100;46.926;7.452;2023-04-27T08:53:48;95326.97;;;15.07;54.68
59329;BME280;45100;46.926;7.452;2023-04-27T08:56:11;95326.89;;;15.17;53.88
59329;BME280;45100;46.926;7.452;2023-04-27T08:58:41;95323.91;;;15.27;53.79
59329;BME280;45100;46.926;7.452;2023-04-27T09:01:12;95320.25;;;15.36;53.00
59329;BME280;45100;46.926;7.452;2023-04-27T09:03:46;95317.62;;;15.39;53.13
59329;BME280;45100;46.926;7.452;2023-04-27T09:06:14;95310.99;;;15.40;52.11
59329;BME280;45100;46.926;7.452;2023-04-27T09:08:45;95314.91;;;15.40;51.74
59329;BME280;45100;46.926;7.452;2023-04-27T09:11:15;95310.83;;;15.40;52.30
59329;BME280;45100;46.926;7.452;2023-04-27T09:13:45;95309.08;;;15.49;52.47
59329;BME280;45100;46.926;7.452;2023-04-27T09:16:14;95310.11;;;15.63;52.54
59329;BME280;45100;46.926;7.452;2023-04-27T09:18:45;95307.38;;;15.77;51.23
59329;BME280;45100;46.926;7.452;2023-04-27T09:21:26;95307.97;;;15.84;50.25
59329;BME280;45100;46.926;7.452;2023-04-27T09:23:46;95305.16;;;15.85;50.43
59329;BME280;45100;46.926;7.452;2023-04-27T09:26:23;95301.75;;;15.87;49.68
59329;BME280;45100;46.926;7.452;2023-04-27T09:28:47;95296.73;;;15.91;50.11
59329;BME280;45100;46.926;7.452;2023-04-27T09:31:16;95300.23;;;16.05;50.47
59329;BME280;45100;46.926;7.452;2023-04-27T09:33:55;95295.92;;;16.23;49.46
59329;BME280;45100;46.926;7.452;2023-04-27T09:36:19;95299.52;;;16.42;49.16
59329;BME280;45100;46.926;7.452;2023-04-27T09:38:50;95296.36;;;16.58;49.14
59329;BME280;45100;46.926;7.452;2023-04-27T09:41:18;95297.49;;;16.70;48.75
59329;BME280;45100;46.926;7.452;2023-04-27T09:43:49;95298.78;;;16.73;47.39
59329;BME280;45100;46.926;7.452;2023-04-27T09:48:53;95297.62;;;16.71;47.47
59329;BME280;45100;46.926;7.452;2023-04-27T09:51:22;95293.54;;;16.80;48.11
59329;BME280;45100;46.926;7.452;2023-04-27T09:53:56;95297.77;;;16.95;47.45
59329;BME280;45100;46.926;7.452;2023-04-27T09:56:51;95294.12;;;17.14;46.87
59329;BME280;45100;46.926;7.452;2023-04-27T09:59:09;95300.07;;;17.21;46.93
59329;BME280;45100;46.926;7.452;2023-04-27T10:01:44;95292.54;;;17.14;46.08
59329;BME280;45100;46.926;7.452;2023-04-27T10:08:59;95286.31;;;17.10;46.69
59329;BME280;45100;46.926;7.452;2023-04-27T10:11:36;95286.66;;;17.16;45.79
59329;BME280;45100;46.926;7.452;2023-04-27T10:14:05;95282.14;;;17.13;45.25
59329;BME280;45100;46.926;7.452;2023-04-27T10:16:54;95283.60;;;17.13;45.37
59329;BME280;45100;46.926;7.452;2023-04-27T10:19:08;95282.60;;;17.21;45.98
59329;BME280;45100;46.926;7.452;2023-04-27T10:26:45;95277.33;;;17.32;45.81
59329;BME280;45100;46.926;7.452;2023-04-27T10:29:15;95276.03;;;17.33;45.79
59329;BME280;45100;46.926;7.452;2023-04-27T10:31:46;95268.02;;;17.40;45.78
59329;BME280;45100;46.926;7.452;2023-04-27T10:34:17;95263.44;;;17.46;45.37
59329;BME280;45100;46.926;7.452;2023-04-27T10:36:43;95260.34;;;17.49;44.69
59329;BME280;45100;46.926;7.452;2023-04-27T10:39:18;95260.84;;;17.48;44.82
59329;BME280;45100;46.926;7.452;2023-04-27T10:41:50;95258.30;;;17.49;44.82
59329;BME280;45100;46.926;7.452;2023-04-27T10:44:17;95259.31;;;17.44;45.07
59329;BME280;45100;46.926;7.452;2023-04-27T10:46:55;95255.11;;;17.37;45.50
59329;BME280;45100;46.926;7.452;2023-04-27T10:49:15;95257.14;;;17.39;45.49
59329;BME280;45100;46.926;7.452;2023-04-27T10:51:49;95257.69;;;17.43;44.93
59329;BME280;45100;46.926;7.452;2023-04-27T10:54:15;95249.34;;;17.41;44.78
59329;BME280;45100;46.926;7.452;2023-04-27T10:56:46;95249.84;;;17.38;44.37
59329;BME280;45100;46.926;7.452;2023-04-27T10:59:16;95250.88;;;17.36;44.09
59329;BME280;45100;46.926;7.452;2023-04-27T11:01:48;95244.71;;;17.40;44.70
59329;BME280;45100;46.926;7.452;2023-04-27T11:06:54;95239.16;;;17.80;43.37
59329;BME280;45100;46.926;7.452;2023-04-27T11:09:25;95237.91;;;17.81;42.64
59329;BME280;45100;46.926;7.452;2023-04-27T11:11:53;95237.14;;;17.75;43.34
59329;BME280;45100;46.926;7.452;2023-04-27T11:14:22;95232.29;;;17.75;43.27
59329;BME280;45100;46.926;7.452;2023-04-27T11:16:53;95227.46;;;17.78;43.00
59329;BME280;45100;46.926;7.452;2023-04-27T11:19:24;95233.38;;;17.75;43.10
59329;BME280;45100;46.926;7.452;2023-04-27T11:22:02;95229.12;;;17.71;43.15
59329;BME280;45100;46.926;7.452;2023-04-27T11:24:25;95235.72;;;17.71;43.16
59329;BME280;45100;46.926;7.452;2023-04-27T11:26:56;95223.41;;;17.71;43.06
59329;BME280;45100;46.926;7.452;2023-04-27T11:29:38;95224.11;;;17.70;43.18
59329;BME280;45100;46.926;7.452;2023-04-27T11:31:57;95226.47;;;17.69;42.56
59329;BME280;45100;46.926;7.452;2023-04-27T11:34:33;95216.91;;;17.77;42.50
59329;BME280;45100;46.926;7.452;2023-04-27T11:37:01;95218.41;;;17.88;42.28
59329;BME280;45100;46.926;7.452;2023-04-27T11:39:33;95227.86;;;17.96;41.83
59329;BME280;45100;46.926;7.452;2023-04-27T11:42:18;95231.24;;;17.96;41.99
59329;BME280;45100;46.926;7.452;2023-04-27T11:44:29;95227.81;;;17.93;43.09
59329;BME280;45100;46.926;7.452;2023-04-27T11:47:01;95231.41;;;17.96;42.98
59329;BME280;45100;46.926;7.452;2023-04-27T11:49:30;95234.66;;;18.01;42.14
59329;BME280;45100;46.926;7.452;2023-04-27T11:52:01;95234.53;;;18.04;41.65
59329;BME280;45100;46.926;7.452;2023-04-27T11:54:32;95234.14;;;18.07;41.05
59329;BME280;45100;46.926;7.452;2023-04-27T11:57:04;95235.28;;;18.10;41.14
59329;BME280;45100;46.926;7.452;2023-04-27T11:59:32;95233.12;;;18.09;40.90
59329;BME280;45100;46.926;7.452;2023-04-27T12:02:03;95231.52;;;18.10;41.82
59329;BME280;45100;46.926;7.452;2023-04-27T12:04:33;95226.53;;;18.09;41.30
59329;BME280;45100;46.926;7.452;2023-04-27T12:07:04;95232.45;;;18.07;41.39
59329;BME280;45100;46.926;7.452;2023-04-27T12:09:35;95228.37;;;18.12;41.80
59329;BME280;45100;46.926;7.452;2023-04-27T12:12:06;95225.58;;;18.28;41.72
59329;BME280;45100;46.926;7.452;2023-04-27T12:14:35;95226.20;;;18.39;41.31
59329;BME280;45100;46.926;7.452;2023-04-27T12:17:07;95228.11;;;18.51;41.36
59329;BME280;45100;46.926;7.452;2023-04-27T12:19:36;95234.11;;;18.62;40.97
59329;BME280;45100;46.926;7.452;2023-04-27T12:22:08;95224.64;;;18.68;40.68
59329;BME280;45100;46.926;7.452;2023-04-27T12:24:38;95225.34;;;18.75;40.55
59329;BME280;45100;46.926;7.452;2023-04-27T12:27:09;95221.69;;;18.74;39.89
59329;BME280;45100;46.926;7.452;2023-04-27T12:29:39;95225.19;;;18.69;39.65
59329;BME280;45100;46.926;7.452;2023-04-27T12:32:10;95218.62;;;18.71;39.74
59329;BME280;45100;46.926;7.452;2023-04-27T12:34:42;95218.86;;;18.83;39.63
59329;BME280;45100;46.926;7.452;2023-04-27T12:37:11;95218.64;;;18.93;39.99
59329;BME280;45100;46.926;7.452;2023-04-27T12:39:41;95220.30;;;18.99;39.34
59329;BME280;45100;46.926;7.452;2023-04-27T12:42:11;95219.22;;;19.06;39.50
59329;BME280;45100;46.926;7.452;2023-04-27T12:44:42;95217.62;;;19.14;39.22
59329;BME280;45100;46.926;7.452;2023-04-27T12:47:13;95212.22;;;19.28;39.00
59329;BME280;45100;46.926;7.452;2023-04-27T12:49:43;95208.45;;;19.42;37.92
59329;BME280;45100;46.926;7.452;2023-04-27T12:52:14;95204.12;;;19.49;37.32
59329;BME280;45100;46.926;7.452;2023-04-27T12:57:19;95199.23;;;19.47;37.87
59329;BME280;45100;46.926;7.452;2023-04-27T12:59:50;95207.45;;;19.49;36.27
59329;BME280;45100;46.926;7.452;2023-04-27T13:02:20;95199.04;;;19.44;36.62
59329;BME280;45100;46.926;7.452;2023-04-27T13:04:51;95190.22;;;19.46;36.82
59329;BME280;45100;46.926;7.452;2023-04-27T13:07:22;95192.10;;;19.50;36.25
59329;BME280;45100;46.926;7.452;2023-04-27T13:09:52;95194.59;;;19.46;35.87
59329;BME280;45100;46.926;7.452;2023-04-27T13:12:23;95192.42;;;19.37;35.78
59329;BME280;45100;46.926;7.452;2023-04-27T13:14:53;95198.48;;;19.33;36.21
59329;BME280;45100;46.926;7.452;2023-04-27T13:17:24;95192.55;;;19.28;36.70
59329;BME280;45100;46.926;7.452;2023-04-27T13:19:55;95195.67;;;19.30;35.91
59329;BME280;45100;46.926;7.452;2023-04-27T13:22:26;95186.52;;;19.32;36.33
59329;BME280;45100;46.926;7.452;2023-04-27T13:24:56;95178.88;;;19.39;36.83
59329;BME280;45100;46.926;7.452;2023-04-27T13:27:28;95184.12;;;19.51;37.00
59329;BME280;45100;46.926;7.452;2023-04-27T13:29:58;95180.52;;;19.57;36.21
59329;BME280;45100;46.926;7.452;2023-04-27T13:32:28;95182.33;;;19.51;36.57
59329;BME280;45100;46.926;7.452;2023-04-27T13:34:59;95185.27;;;19.45;36.48
59329;BME280;45100;46.926;7.452;2023-04-27T13:37:30;95186.86;;;19.37;36.78
59329;BME280;45100;46.926;7.452;2023-04-27T13:40:00;95183.96;;;19.31;35.21
59329;BME280;45100;46.926;7.452;2023-04-27T13:42:31;95183.11;;;19.23;35.47
59329;BME280;45100;46.926;7.452;2023-04-27T13:45:04;95177.53;;;19.17;35.77
59329;BME280;45100;46.926;7.452;2023-04-27T13:47:40;95178.45;;;19.11;36.52
59329;BME280;45100;46.926;7.452;2023-04-27T13:50:04;95169.70;;;19.05;36.13
59329;BME280;45100;46.926;7.452;2023-04-27T13:52:34;95158.27;;;19.02;36.76
59329;BME280;45100;46.926;7.452;2023-04-27T13:55:05;95169.22;;;19.06;36.39
59329;BME280;45100;46.926;7.452;2023-04-27T13:57:35;95172.05;;;19.05;35.43